Time;durP1;ratioP1;P1;durP2;ratioP2;P2;SDS_P1;SDS_P2;PMS_P1;PMS_P2;Temp;Humidity;BMP_temperature;BMP_pressure;BME280_temperature;BME280_humidity;BME280_pressure;Samples;Min_cycle;Max_cycle;Signal;HPM_P1;HPM_P2
2023/05/09 00:01:57;;;;;;;42.77;24.90;;;14.90;99.90;;;;;;4973594;28;20055;-81
2023/05/09 00:04:23;;;;;;;46.07;24.57;;;14.90;99.90;;;;;;4973659;28;20054;-82
2023/05/09 00:06:49;;;;;;;41.63;24.57;;;14.90;99.90;;;;;;4973500;28;20051;-82
2023/05/09 00:09:16;;;;;;;37.47;23.10;;;14.90;99.90;;;;;;4973783;28;20134;-81
2023/05/09 00:11:41;;;;;;;44.37;23.90;;;14.90;99.90;;;;;;4957782;28;20106;-81
2023/05/09 00:14:07;;;;;;;47.23;26.97;;;14.80;99.90;;;;;;4973964;28;20042;-81
2023/05/09 00:16:33;;;;;;;47.17;26.33;;;14.90;99.90;;;;;;4973619;28;20446;-81
2023/05/09 00:18:59;;;;;;;43.47;24.50;;;14.90;99.90;;;;;;4974596;28;20054;-81
2023/05/09 00:21:25;;;;;;;47.73;26.03;;;14.90;99.90;;;;;;4973898;28;20158;-81
2023/05/09 00:23:50;;;;;;;39.30;24.73;;;14.90;99.90;;;;;;4973607;28;20566;-81
2023/05/09 00:26:16;;;;;;;43.93;24.97;;;14.90;99.90;;;;;;4974449;28;20129;-80
2023/05/09 00:28:42;;;;;;;41.43;24.13;;;14.90;99.90;;;;;;4973501;28;20053;-80
2023/05/09 00:31:08;;;;;;;35.27;22.87;;;15.00;99.90;;;;;;4974619;28;20416;-80
2023/05/09 00:33:33;;;;;;;38.97;24.53;;;14.80;99.90;;;;;;4973469;28;20487;-80
2023/05/09 00:35:59;;;;;;;41.20;24.07;;;14.80;99.90;;;;;;4974299;28;20051;-80
2023/05/09 00:38:25;;;;;;;42.57;24.87;;;14.80;99.90;;;;;;4973442;28;20391;-80
2023/05/09 00:40:51;;;;;;;44.73;26.40;;;14.80;99.90;;;;;;4973528;28;20054;-80
2023/05/09 00:43:17;;;;;;;39.17;24.87;;;14.80;99.90;;;;;;4974249;28;20051;-79
2023/05/09 00:45:44;;;;;;;51.33;26.73;;;14.70;99.90;;;;;;4973457;28;20442;-79
2023/05/09 00:48:10;;;;;;;46.03;25.80;;;14.70;99.90;;;;;;4973430;28;20058;-80
2023/05/09 00:50:36;;;;;;;37.43;24.33;;;14.70;99.90;;;;;;4974182;28;20432;-80
2023/05/09 00:53:03;;;;;;;36.80;24.43;;;14.70;99.90;;;;;;4976491;28;20057;-79
2023/05/09 00:55:29;;;;;;;36.57;23.43;;;14.70;99.90;;;;;;4977117;28;20510;-79
2023/05/09 00:57:54;;;;;;;39.63;25.13;;;14.60;99.90;;;;;;4977942;28;20043;-80
2023/05/09 01:00:21;;;;;;;40.40;24.77;;;14.60;99.90;;;;;;4978472;28;20053;-80
2023/05/09 01:02:51;;;;;;;39.90;24.27;;;14.60;99.90;;;;;;4960560;28;20054;-79
2023/05/09 01:05:18;;;;;;;41.37;23.77;;;14.70;99.90;;;;;;4978707;28;20102;-79
2023/05/09 01:08:09;;;;;;;38.33;24.20;;;14.60;99.90;;;;;;4977297;28;20051;-79
2023/05/09 01:11:03;;;;;;;37.37;24.43;;;14.60;99.90;;;;;;4977099;28;20096;-79
2023/05/09 01:13:48;;;;;;;37.20;24.83;;;14.60;99.90;;;;;;4977622;28;20062;-80
2023/05/09 01:16:43;;;;;;;42.47;26.17;;;14.60;99.90;;;;;;4977534;28;20059;-79
2023/05/09 01:19:30;;;;;;;44.15;25.52;;;14.60;99.90;;;;;;4975650;28;20051;-79
2023/05/09 01:21:58;;;;;;;41.47;24.40;;;14.60;99.90;;;;;;4977454;28;20418;-80
2023/05/09 01:24:56;;;;;;;44.90;26.37;;;14.70;99.90;;;;;;4977373;28;20458;-78
2023/05/09 01:27:44;;;;;;;46.73;26.80;;;14.70;99.90;;;;;;4976881;28;20047;-79
2023/05/09 01:30:11;;;;;;;43.20;25.93;;;14.70;99.90;;;;;;4976725;28;20549;-78
2023/05/09 01:32:41;;;;;;;47.27;26.10;;;14.70;99.90;;;;;;4977352;28;20293;-78
2023/05/09 01:35:10;;;;;;;41.57;26.57;;;14.70;99.90;;;;;;4976167;28;20282;-78
2023/05/09 01:37:40;;;;;;;44.80;25.87;;;14.60;99.90;;;;;;4977262;28;20046;-78
2023/05/09 01:40:19;;;;;;;45.60;27.33;;;14.60;99.90;;;;;;4976743;28;20058;-79
2023/05/09 01:42:53;;;;;;;46.23;27.63;;;14.60;99.90;;;;;;4977027;28;20042;-79
2023/05/09 01:45:21;;;;;;;47.53;28.08;;;14.60;99.90;;;;;;4977725;28;20371;-79
2023/05/09 01:47:48;;;;;;;51.80;27.27;;;14.60;99.90;;;;;;4977058;28;20085;-79
2023/05/09 01:50:17;;;;;;;48.70;29.10;;;14.60;99.90;;;;;;4977575;28;20050;-79
2023/05/09 01:52:46;;;;;;;44.87;27.40;;;14.60;99.90;;;;;;4977032;28;20138;-79
2023/05/09 01:55:15;;;;;;;45.20;27.83;;;14.60;99.90;;;;;;4976760;28;20061;-79
2023/05/09 01:57:42;;;;;;;51.27;28.37;;;14.60;99.90;;;;;;4976754;28;20042;-79
2023/05/09 02:00:12;;;;;;;53.60;29.73;;;14.60;99.90;;;;;;4977413;28;20093;-79
2023/05/09 02:02:38;;;;;;;50.20;28.67;;;14.60;99.90;;;;;;4960026;28;20121;-78
2023/05/09 02:05:07;;;;;;;53.33;30.13;;;14.60;99.90;;;;;;4977251;28;20105;-79
2023/05/09 02:07:34;;;;;;;51.80;30.17;;;14.60;99.90;;;;;;4976718;28;20302;-78
2023/05/09 02:10:01;;;;;;;56.57;29.70;;;14.50;99.90;;;;;;4959641;28;20108;-79
2023/05/09 02:12:27;;;;;;;53.47;29.13;;;14.50;99.90;;;;;;4976743;28;20286;-78
2023/05/09 02:14:53;;;;;;;54.03;29.37;;;14.60;99.90;;;;;;4975700;28;20051;-79
2023/05/09 02:17:20;;;;;;;54.03;29.73;;;14.60;99.90;;;;;;4959330;28;20122;-79
2023/05/09 02:19:46;;;;;;;50.73;29.73;;;14.60;99.90;;;;;;4976639;28;20054;-78
2023/05/09 02:22:13;;;;;;;55.07;31.03;;;14.60;99.90;;;;;;4975230;28;20054;-79
2023/05/09 02:24:41;;;;;;;58.07;31.93;;;14.60;99.90;;;;;;4975110;28;20057;-79
2023/05/09 02:27:08;;;;;;;55.23;30.90;;;14.50;99.90;;;;;;4977111;28;20441;-79
2023/05/09 02:29:42;;;;;;;56.13;32.13;;;14.50;99.90;;;;;;4976138;28;20356;-79
2023/05/09 02:32:25;;;;;;;56.73;30.87;;;14.60;99.90;;;;;;4975391;28;20098;-79
2023/05/09 02:34:52;;;;;;;52.00;29.10;;;14.60;99.90;;;;;;4976406;28;20363;-80
2023/05/09 02:37:19;;;;;;;54.10;30.73;;;14.60;99.90;;;;;;4976189;28;20050;-79
2023/05/09 02:39:45;;;;;;;51.73;29.97;;;14.50;99.90;;;;;;4958823;28;20306;-79
2023/05/09 02:42:14;;;;;;;58.17;31.20;;;14.50;99.90;;;;;;4976171;28;20055;-79
2023/05/09 02:44:40;;;;;;;60.13;33.67;;;14.50;99.90;;;;;;4976579;28;20069;-79
2023/05/09 02:47:06;;;;;;;59.93;32.10;;;14.50;99.90;;;;;;4975058;28;20314;-82
2023/05/09 02:49:33;;;;;;;63.47;34.53;;;14.50;99.90;;;;;;4975258;28;20047;-79
2023/05/09 02:51:59;;;;;;;59.53;32.60;;;14.50;99.90;;;;;;4974961;28;20047;-78
2023/05/09 02:54:25;;;;;;;62.67;32.30;;;14.50;99.90;;;;;;4975878;28;20055;-78
2023/05/09 02:56:51;;;;;;;61.90;33.93;;;14.50;99.90;;;;;;4958886;28;20043;-78
2023/05/09 02:59:18;;;;;;;58.73;34.63;;;14.50;99.90;;;;;;4974440;28;20050;-79
2023/05/09 03:01:43;;;;;;;68.10;33.83;;;14.50;99.90;;;;;;4975001;28;20050;-79
2023/05/09 03:04:09;;;;;;;57.50;32.40;;;14.50;99.90;;;;;;4975704;28;20053;-79
2023/05/09 03:06:35;;;;;;;61.40;33.00;;;14.50;99.90;;;;;;4974799;28;20089;-78
2023/05/09 03:09:01;;;;;;;59.97;34.07;;;14.50;99.90;;;;;;4974746;28;20146;-79
2023/05/09 03:11:26;;;;;;;61.03;34.53;;;14.40;99.90;;;;;;4975633;28;20410;-79
2023/05/09 03:13:52;;;;;;;63.57;34.13;;;14.40;99.90;;;;;;4975048;28;20086;-79
2023/05/09 03:16:19;;;;;;;65.00;34.40;;;14.40;99.90;;;;;;4975536;28;20046;-80
2023/05/09 03:18:45;;;;;;;64.30;35.20;;;14.40;99.90;;;;;;4976084;28;20050;-80
2023/05/09 03:21:11;;;;;;;60.97;34.03;;;14.40;99.90;;;;;;4974173;28;20057;-82
2023/05/09 03:23:38;;;;;;;62.87;33.83;;;14.40;99.90;;;;;;4974663;28;20141;-80
2023/05/09 03:26:03;;;;;;;68.23;35.80;;;14.40;99.90;;;;;;4958430;28;20050;-79
2023/05/09 03:28:29;;;;;;;69.57;35.77;;;14.40;99.90;;;;;;4958245;28;20410;-80
2023/05/09 03:30:55;;;;;;;73.60;36.17;;;14.40;99.90;;;;;;4976070;28;20082;-80
2023/05/09 03:33:21;;;;;;;65.70;35.00;;;14.40;99.90;;;;;;4974233;28;20398;-80
2023/05/09 03:35:46;;;;;;;72.23;37.47;;;14.40;99.90;;;;;;4975186;28;20086;-80
2023/05/09 03:38:12;;;;;;;67.73;36.10;;;14.40;99.90;;;;;;4974123;28;20051;-83
2023/05/09 03:40:38;;;;;;;67.80;35.43;;;14.40;99.90;;;;;;4975621;28;20142;-79
2023/05/09 03:43:04;;;;;;;64.50;35.33;;;14.50;99.90;;;;;;4974555;28;20062;-79
2023/05/09 03:45:29;;;;;;;68.60;36.33;;;14.50;99.90;;;;;;4958324;28;20059;-77
2023/05/09 03:47:55;;;;;;;70.43;35.87;;;14.50;99.90;;;;;;4957659;28;20391;-77
2023/05/09 03:50:21;;;;;;;67.97;35.70;;;14.50;99.90;;;;;;4975188;28;20093;-80
2023/05/09 03:52:46;;;;;;;69.53;35.93;;;14.40;99.90;;;;;;4974786;28;20431;-80
2023/05/09 03:55:12;;;;;;;65.97;35.97;;;14.50;99.90;;;;;;4974884;28;20153;-80
2023/05/09 03:57:38;;;;;;;65.77;36.20;;;14.50;99.90;;;;;;4974065;28;20550;-80
2023/05/09 04:00:05;;;;;;;65.27;35.13;;;14.50;99.90;;;;;;4975097;28;20054;-80
2023/05/09 04:02:33;;;;;;;69.23;35.80;;;14.40;99.90;;;;;;4974449;28;20419;-80
2023/05/09 04:04:59;;;;;;;65.97;36.47;;;14.50;99.90;;;;;;4975287;28;20381;-80
2023/05/09 04:07:27;;;;;;;63.67;36.17;;;14.50;99.90;;;;;;4973534;28;20053;-81
2023/05/09 04:09:54;;;;;;;70.00;36.17;;;14.50;99.90;;;;;;4973785;28;20051;-80
2023/05/09 04:12:20;;;;;;;62.60;35.37;;;14.50;99.90;;;;;;4974698;28;20109;-81
2023/05/09 04:14:46;;;;;;;69.60;36.37;;;14.40;99.90;;;;;;4973543;28;20058;-80
2023/05/09 04:17:12;;;;;;;65.87;35.77;;;14.50;99.90;;;;;;4974670;28;20289;-80
2023/05/09 04:19:37;;;;;;;70.43;37.10;;;14.50;99.90;;;;;;4974895;28;20047;-80
2023/05/09 04:22:03;;;;;;;76.90;37.30;;;14.50;99.90;;;;;;4974953;28;20047;-80
2023/05/09 04:24:29;;;;;;;73.47;37.40;;;14.50;99.90;;;;;;4973674;28;20051;-80
2023/05/09 04:26:55;;;;;;;71.40;36.00;;;14.50;99.90;;;;;;4978068;28;20391;-80
2023/05/09 04:29:20;;;;;;;67.30;35.30;;;14.50;99.90;;;;;;4977818;28;20049;-80
2023/05/09 04:31:46;;;;;;;69.67;36.73;;;14.50;99.90;;;;;;4978580;28;20380;-80
2023/05/09 04:34:12;;;;;;;75.13;37.57;;;14.60;99.90;;;;;;4962003;28;20129;-80
2023/05/09 04:36:37;;;;;;;69.13;35.70;;;14.60;99.90;;;;;;4978426;28;20376;-81
2023/05/09 04:39:07;;;;;;;71.93;37.13;;;14.60;99.90;;;;;;4978391;28;20475;-80
2023/05/09 04:41:32;;;;;;;74.60;38.67;;;14.60;99.90;;;;;;4977323;28;20479;-80
2023/05/09 04:43:58;;;;;;;69.47;36.53;;;14.60;99.90;;;;;;4978100;28;20085;-80
2023/05/09 04:46:24;;;;;;;69.47;36.53;;;14.60;99.90;;;;;;4977835;28;20094;-80
2023/05/09 04:48:50;;;;;;;75.33;38.10;;;14.60;99.90;;;;;;4978711;28;20126;-80
2023/05/09 04:51:16;;;;;;;69.50;37.87;;;14.60;99.90;;;;;;4977923;28;20106;-80
2023/05/09 04:53:41;;;;;;;75.67;39.33;;;14.60;99.90;;;;;;4978069;28;20046;-79
2023/05/09 04:56:07;;;;;;;73.13;40.20;;;14.70;99.90;;;;;;4978067;28;20130;-80
2023/05/09 04:58:37;;;;;;;70.80;37.40;;;14.70;99.90;;;;;;4960948;28;20483;-80
2023/05/09 05:01:04;;;;;;;72.93;37.80;;;14.70;99.90;;;;;;4978038;28;20051;-80
2023/05/09 05:03:29;;;;;;;75.67;39.43;;;14.70;99.90;;;;;;4961241;28;20051;-80
2023/05/09 05:05:55;;;;;;;68.87;38.37;;;14.60;99.90;;;;;;4977878;28;20047;-79
2023/05/09 05:08:21;;;;;;;73.60;38.73;;;14.60;99.90;;;;;;4977896;28;20046;-79
2023/05/09 05:10:47;;;;;;;74.53;38.30;;;14.60;99.90;;;;;;4977782;28;20047;-79
2023/05/09 05:13:13;;;;;;;70.87;35.50;;;14.60;99.90;;;;;;4976825;28;20133;-80
2023/05/09 05:15:40;;;;;;;80.20;38.77;;;14.60;99.90;;;;;;4977097;28;20042;-80
2023/05/09 05:18:05;;;;;;;72.47;37.43;;;14.60;99.90;;;;;;4976699;28;20046;-80
2023/05/09 05:20:31;;;;;;;73.77;39.10;;;14.60;99.90;;;;;;4976585;28;20109;-81
2023/05/09 05:22:57;;;;;;;77.73;40.03;;;14.60;99.90;;;;;;4977536;28;20086;-80
2023/05/09 05:25:23;;;;;;;75.73;38.10;;;14.60;99.90;;;;;;4977017;28;20089;-80
2023/05/09 05:27:49;;;;;;;75.60;38.20;;;14.60;99.90;;;;;;4977067;28;20058;-80
2023/05/09 05:30:15;;;;;;;73.70;38.07;;;14.70;99.90;;;;;;4960324;28;20046;-80
2023/05/09 05:32:42;;;;;;;76.60;37.63;;;14.60;99.90;;;;;;4977201;28;20122;-80
2023/05/09 05:35:10;;;;;;;67.13;38.23;;;14.70;99.90;;;;;;4960328;28;20059;-80
2023/05/09 05:37:37;;;;;;;75.00;38.00;;;14.70;99.90;;;;;;4976108;28;20043;-81
2023/05/09 05:40:04;;;;;;;73.20;38.60;;;14.70;99.90;;;;;;4960349;28;20082;-80
2023/05/09 05:42:31;;;;;;;74.70;37.60;;;14.80;99.90;;;;;;4976326;28;20546;-81
2023/05/09 05:44:56;;;;;;;73.30;39.53;;;14.80;99.90;;;;;;4976087;28;20423;-80
2023/05/09 05:47:22;;;;;;;75.07;39.50;;;14.90;99.90;;;;;;4976009;28;20051;-79
2023/05/09 05:49:48;;;;;;;73.47;39.27;;;15.00;99.90;;;;;;4960021;28;20046;-80
2023/05/09 05:52:14;;;;;;;73.20;38.40;;;15.00;99.90;;;;;;4960019;28;20046;-79
2023/05/09 05:54:39;;;;;;;77.67;40.57;;;15.10;99.90;;;;;;4975740;28;20042;-79
2023/05/09 05:57:06;;;;;;;75.40;40.77;;;15.20;99.90;;;;;;4976022;28;20043;-80
2023/05/09 05:59:32;;;;;;;75.17;42.20;;;15.20;99.90;;;;;;4976920;28;20472;-80
2023/05/09 06:01:58;;;;;;;68.77;38.30;;;15.30;99.90;;;;;;4976729;28;20126;-80
2023/05/09 06:04:23;;;;;;;76.83;41.30;;;15.30;99.90;;;;;;4976829;28;20058;-80
2023/05/09 06:06:50;;;;;;;73.97;40.93;;;15.30;99.90;;;;;;4977139;28;20081;-80
2023/05/09 06:09:15;;;;;;;75.40;40.50;;;15.30;99.90;;;;;;4976720;28;20560;-81
2023/05/09 06:11:41;;;;;;;79.17;40.90;;;15.30;99.90;;;;;;4976676;28;20133;-81
2023/05/09 06:14:07;;;;;;;78.03;41.27;;;15.30;99.90;;;;;;4975686;28;20043;-81
2023/05/09 06:16:32;;;;;;;78.33;42.23;;;15.30;99.90;;;;;;4975738;28;20121;-82
2023/05/09 06:18:58;;;;;;;69.80;40.23;;;15.30;99.90;;;;;;4959515;28;20404;-81
2023/05/09 06:21:25;;;;;;;78.83;42.73;;;15.30;99.90;;;;;;4975235;28;20047;-80
2023/05/09 06:23:50;;;;;;;76.07;41.33;;;15.30;99.90;;;;;;4975160;28;20104;-81
2023/05/09 06:26:16;;;;;;;81.60;44.13;;;15.40;99.90;;;;;;4960106;28;20074;-80
2023/05/09 06:28:42;;;;;;;78.80;43.73;;;15.40;99.90;;;;;;4976913;28;20078;-81
2023/05/09 06:31:07;;;;;;;79.07;43.10;;;15.50;99.90;;;;;;4975136;28;20089;-80
2023/05/09 06:33:33;;;;;;;79.70;45.57;;;15.50;99.90;;;;;;4975310;28;20093;-81
2023/05/09 06:35:59;;;;;;;83.10;45.43;;;15.50;99.90;;;;;;4959222;28;20133;-80
2023/05/09 06:38:25;;;;;;;79.00;44.40;;;15.60;99.90;;;;;;4975276;28;20395;-80
2023/05/09 06:40:50;;;;;;;79.30;44.40;;;15.60;99.90;;;;;;4976677;28;20463;-81
2023/05/09 06:43:16;;;;;;;79.90;45.63;;;15.60;99.90;;;;;;4974642;28;20466;-81
2023/05/09 06:45:42;;;;;;;75.90;44.40;;;15.70;99.90;;;;;;4975415;28;20089;-81
2023/05/09 06:48:07;;;;;;;78.77;44.23;;;15.70;99.90;;;;;;4975850;28;20039;-81
2023/05/09 06:50:33;;;;;;;80.90;46.03;;;15.80;99.90;;;;;;4975819;28;20058;-81
2023/05/09 06:52:59;;;;;;;71.33;41.67;;;15.80;99.90;;;;;;4975483;28;20121;-81
2023/05/09 06:55:25;;;;;;;86.20;47.07;;;15.80;99.90;;;;;;4974708;28;20051;-81
2023/05/09 06:57:50;;;;;;;77.03;44.63;;;15.80;99.90;;;;;;4958769;28;20093;-81
2023/05/09 07:00:16;;;;;;;83.73;46.70;;;15.80;99.90;;;;;;4975788;28;20380;-78
2023/05/09 07:02:42;;;;;;;80.87;46.70;;;15.80;99.90;;;;;;4974805;28;20555;-79
2023/05/09 07:05:09;;;;;;;76.33;43.87;;;15.90;99.90;;;;;;4975041;28;20054;-80
2023/05/09 07:07:35;;;;;;;83.00;48.20;;;15.90;99.90;;;;;;4958433;28;20135;-80
2023/05/09 07:10:03;;;;;;;82.37;47.10;;;16.00;99.90;;;;;;4974173;28;20485;-81
2023/05/09 07:12:30;;;;;;;77.37;45.33;;;16.10;99.90;;;;;;4975609;28;20133;-81
2023/05/09 07:14:56;;;;;;;77.77;46.67;;;16.20;99.90;;;;;;4975519;28;20138;-80
2023/05/09 07:17:23;;;;;;;83.53;45.67;;;16.30;99.90;;;;;;4958176;28;20130;-80
2023/05/09 07:19:49;;;;;;;79.97;46.07;;;16.40;99.90;;;;;;4975362;28;20047;-79
2023/05/09 07:22:15;;;;;;;76.97;46.60;;;16.40;99.90;;;;;;4974321;28;20510;-81
2023/05/09 07:24:41;;;;;;;76.47;45.40;;;16.40;99.90;;;;;;4973997;28;20086;-82
2023/05/09 07:27:06;;;;;;;72.90;44.63;;;16.40;99.90;;;;;;4975176;28;20134;-80
2023/05/09 07:29:32;;;;;;;73.90;45.77;;;16.40;99.90;;;;;;4975069;28;20043;-80
2023/05/09 07:31:58;;;;;;;72.37;43.83;;;16.40;99.90;;;;;;4975717;28;20546;-80
2023/05/09 07:34:24;;;;;;;76.90;45.80;;;16.30;99.90;;;;;;4975079;28;20490;-79
2023/05/09 07:36:50;;;;;;;80.37;47.73;;;16.30;99.90;;;;;;4975626;28;20043;-79
2023/05/09 07:39:15;;;;;;;72.50;45.93;;;16.40;99.90;;;;;;4975091;28;20499;-77
2023/05/09 07:41:41;;;;;;;71.50;43.60;;;16.40;99.90;;;;;;4973806;28;20055;-78
2023/05/09 07:44:08;;;;;;;73.97;44.43;;;16.40;99.90;;;;;;4974747;28;20061;-79
2023/05/09 07:46:39;;;;;;;69.13;44.37;;;16.40;99.90;;;;;;4974660;28;20491;-77
2023/05/09 07:49:05;;;;;;;69.27;43.53;;;16.40;99.90;;;;;;4975064;28;20047;-78
2023/05/09 07:51:31;;;;;;;64.83;39.87;;;16.40;99.90;;;;;;4973998;28;20069;-78
2023/05/09 07:53:56;;;;;;;63.30;39.83;;;16.40;99.90;;;;;;4974846;28;20043;-78
2023/05/09 07:56:22;;;;;;;57.17;38.70;;;16.40;99.90;;;;;;4973969;28;20059;-77
2023/05/09 07:58:48;;;;;;;61.60;40.50;;;16.40;99.90;;;;;;4975353;28;20078;-78
2023/05/09 08:01:14;;;;;;;54.10;36.77;;;16.40;99.90;;;;;;4974608;28;20055;-79
2023/05/09 08:03:40;;;;;;;57.63;37.87;;;16.40;99.90;;;;;;4974850;28;20090;-77
2023/05/09 08:06:06;;;;;;;52.47;34.73;;;16.40;99.90;;;;;;4975260;28;20113;-77
2023/05/09 08:08:32;;;;;;;50.53;33.20;;;16.30;99.90;;;;;;4974767;28;20126;-78
2023/05/09 08:10:58;;;;;;;45.30;30.80;;;16.40;99.90;;;;;;4975047;28;20438;-78
2023/05/09 08:13:24;;;;;;;51.33;31.70;;;16.30;99.90;;;;;;4974735;28;20435;-79
2023/05/09 08:15:49;;;;;;;48.00;31.00;;;16.30;99.90;;;;;;4974641;28;20050;-79
2023/05/09 08:18:15;;;;;;;44.43;31.57;;;16.30;99.90;;;;;;4974686;28;20101;-78
2023/05/09 08:20:41;;;;;;;40.70;29.23;;;16.30;99.90;;;;;;4974597;28;20054;-78
2023/05/09 08:23:07;;;;;;;36.00;25.60;;;16.30;99.90;;;;;;4975344;28;20455;-79
2023/05/09 08:25:32;;;;;;;35.90;24.60;;;16.30;99.90;;;;;;4973502;28;20501;-79
2023/05/09 08:27:58;;;;;;;36.97;23.83;;;16.40;99.90;;;;;;4973546;28;20054;-79
2023/05/09 08:30:24;;;;;;;29.07;20.63;;;16.40;99.90;;;;;;4975382;28;20043;-81
2023/05/09 08:32:50;;;;;;;27.50;20.20;;;16.40;99.90;;;;;;4974413;28;20086;-83
2023/05/09 08:35:15;;;;;;;28.00;19.97;;;16.40;99.90;;;;;;4973502;28;20055;-82
2023/05/09 08:37:41;;;;;;;26.97;17.83;;;16.40;99.90;;;;;;4973849;28;20150;-82
2023/05/09 08:40:08;;;;;;;29.07;19.30;;;16.40;99.90;;;;;;4974954;28;20050;-78
2023/05/09 08:42:37;;;;;;;27.83;19.13;;;16.50;99.90;;;;;;4974457;28;20074;-80
2023/05/09 08:45:10;;;;;;;30.97;19.00;;;16.50;99.90;;;;;;4975000;28;20059;-79
2023/05/09 08:47:37;;;;;;;28.90;20.20;;;16.60;99.90;;;;;;4974689;28;20050;-79
2023/05/09 08:50:04;;;;;;;26.30;19.40;;;16.70;99.90;;;;;;4974461;28;20446;-78
2023/05/09 08:52:32;;;;;;;28.70;18.43;;;16.80;99.90;;;;;;4974485;28;20094;-78
2023/05/09 08:54:59;;;;;;;26.53;17.40;;;16.90;99.90;;;;;;4974325;28;20151;-79
2023/05/09 08:57:26;;;;;;;25.50;17.13;;;17.00;99.90;;;;;;4974596;28;20501;-79
2023/05/09 08:59:52;;;;;;;25.97;16.70;;;17.00;99.90;;;;;;4974317;28;20058;-81
2023/05/09 09:02:19;;;;;;;22.30;16.23;;;17.10;99.90;;;;;;4973341;28;20058;-77
2023/05/09 09:04:45;;;;;;;26.10;17.50;;;17.10;99.90;;;;;;4974355;28;20055;-73
2023/05/09 09:07:12;;;;;;;25.43;17.37;;;17.20;99.90;;;;;;4974961;28;20057;-73
2023/05/09 09:09:44;;;;;;;22.43;16.63;;;17.30;99.90;;;;;;4974992;28;20129;-73
2023/05/09 09:12:11;;;;;;;25.33;16.40;;;17.40;99.90;;;;;;4974850;28;20050;-72
2023/05/09 09:14:45;;;;;;;23.57;16.63;;;17.50;99.90;;;;;;4977763;28;20055;-76
2023/05/09 09:17:15;;;;;;;22.52;16.05;;;17.60;99.90;;;;;;4978504;28;20108;-72
2023/05/09 09:19:44;;;;;;;23.23;16.30;;;17.60;99.90;;;;;;4977012;28;20050;-78
2023/05/09 09:22:14;;;;;;;25.87;16.23;;;17.70;99.90;;;;;;4977854;28;20097;-78
2023/05/09 09:24:40;;;;;;;22.23;16.17;;;17.70;99.90;;;;;;4977426;28;20495;-77
2023/05/09 09:27:06;;;;;;;21.87;16.27;;;17.90;99.90;;;;;;4976259;28;20085;-78
2023/05/09 09:29:33;;;;;;;23.17;16.67;;;18.00;99.90;;;;;;4976317;28;20082;-78
2023/05/09 09:32:02;;;;;;;23.97;16.40;;;18.00;99.90;;;;;;4977346;28;20043;-78
2023/05/09 09:34:28;;;;;;;23.30;15.97;;;18.00;99.90;;;;;;4977326;28;20057;-78
2023/05/09 09:36:54;;;;;;;23.83;15.57;;;18.10;99.90;;;;;;4976356;28;20046;-78
2023/05/09 09:39:20;;;;;;;23.57;16.90;;;18.10;99.90;;;;;;4978042;28;20042;-78
2023/05/09 09:41:47;;;;;;;21.70;16.43;;;18.10;99.90;;;;;;4977317;28;20059;-78
2023/05/09 09:44:17;;;;;;;21.80;16.27;;;18.20;99.90;;;;;;4977446;28;20061;-78
2023/05/09 09:46:49;;;;;;;22.70;16.07;;;18.20;99.90;;;;;;4977384;28;20047;-78
2023/05/09 09:49:17;;;;;;;25.07;16.63;;;18.30;99.90;;;;;;4976460;28;20058;-78
2023/05/09 09:51:43;;;;;;;22.43;15.90;;;18.30;99.90;;;;;;4960260;28;20476;-78
2023/05/09 09:54:10;;;;;;;22.63;15.23;;;18.40;99.90;;;;;;4977120;28;20043;-77
2023/05/09 09:56:44;;;;;;;22.70;16.17;;;18.30;99.90;;;;;;4977848;28;20213;-78
2023/05/09 09:59:11;;;;;;;22.77;15.88;;;18.30;99.90;;;;;;4977220;28;20507;-78
2023/05/09 10:01:57;;;;;;;21.80;15.80;;;18.30;99.90;;;;;;4978075;28;20054;-78
2023/05/09 10:04:24;;;;;;;21.77;15.90;;;18.30;99.90;;;;;;4977367;28;20480;-78
2023/05/09 10:06:56;;;;;;;23.93;17.03;;;18.30;99.90;;;;;;4977044;28;20046;-78
2023/05/09 10:09:26;;;;;;;23.10;16.17;;;18.30;99.90;;;;;;4977301;28;20090;-78
2023/05/09 10:11:53;;;;;;;23.33;17.00;;;18.20;99.90;;;;;;4960329;28;20047;-78
2023/05/09 10:14:22;;;;;;;22.80;16.80;;;18.20;99.90;;;;;;4976639;28;20391;-78
2023/05/09 10:16:49;;;;;;;24.97;17.00;;;18.20;99.90;;;;;;4975891;28;20105;-78
2023/05/09 10:19:19;;;;;;;23.33;16.70;;;18.30;99.90;;;;;;4976367;28;20414;-78
2023/05/09 10:21:53;;;;;;;21.23;16.67;;;18.30;99.90;;;;;;4977341;28;20376;-78
2023/05/09 10:24:26;;;;;;;24.80;17.33;;;18.30;99.90;;;;;;4977174;28;20046;-78
2023/05/09 10:26:59;;;;;;;25.50;18.60;;;18.30;99.90;;;;;;4977179;28;20050;-78
2023/05/09 10:29:28;;;;;;;24.07;17.77;;;18.30;99.90;;;;;;4975493;28;20141;-78
2023/05/09 10:31:58;;;;;;;23.00;18.23;;;18.30;99.90;;;;;;4976216;28;20483;-76
2023/05/09 10:34:26;;;;;;;25.50;18.27;;;18.30;99.90;;;;;;4976824;28;20075;-77
2023/05/09 10:36:53;;;;;;;22.93;17.03;;;18.20;99.90;;;;;;4975078;28;20039;-73
2023/05/09 10:39:19;;;;;;;20.63;16.30;;;18.20;99.90;;;;;;4976157;28;20055;-78
2023/05/09 10:41:48;;;;;;;23.47;17.53;;;18.30;99.90;;;;;;4976183;28;20047;-78
2023/05/09 10:44:15;;;;;;;24.43;17.53;;;18.30;99.90;;;;;;4958845;28;20062;-78
2023/05/09 10:46:41;;;;;;;25.30;16.20;;;18.30;99.90;;;;;;4975962;28;20483;-80
2023/05/09 10:49:08;;;;;;;20.77;15.97;;;18.30;99.90;;;;;;4976531;28;20375;-80
2023/05/09 10:51:34;;;;;;;19.67;15.13;;;18.30;99.90;;;;;;4975986;28;20065;-80
2023/05/09 10:54:00;;;;;;;20.57;15.40;;;18.30;99.90;;;;;;4975906;28;20129;-76
2023/05/09 10:56:34;;;;;;;21.20;15.57;;;18.30;99.90;;;;;;4974865;28;20065;-83
2023/05/09 10:59:00;;;;;;;23.70;17.48;;;18.30;99.90;;;;;;4975884;28;20054;-80
2023/05/09 11:01:36;;;;;;;23.07;16.90;;;18.30;99.90;;;;;;4976266;28;20113;-77
2023/05/09 11:04:08;;;;;;;20.40;15.90;;;18.30;99.90;;;;;;4974812;28;20457;-77
2023/05/09 11:06:47;;;;;;;20.50;15.53;;;18.20;99.90;;;;;;4976481;28;20118;-77
2023/05/09 11:09:33;;;;;;;21.10;15.90;;;18.10;99.90;;;;;;4976253;28;20074;-77
2023/05/09 11:12:04;;;;;;;;;;;18.00;99.90;;;;;;4976018;28;20055;-73
2023/05/09 11:14:31;;;;;;;21.63;15.77;;;18.00;99.90;;;;;;4976328;28;20364;-75
2023/05/09 11:17:00;;;;;;;20.70;16.63;;;17.90;99.90;;;;;;4975500;28;20126;-75
2023/05/09 11:19:45;;;;;;;20.63;15.60;;;17.90;99.90;;;;;;4975117;28;20051;-75
2023/05/09 11:22:15;;;;;;;24.88;17.42;;;17.90;99.90;;;;;;4976035;28;20081;-75
2023/05/09 11:24:46;;;;;;;20.70;16.73;;;17.90;99.90;;;;;;4975330;28;20137;-76
2023/05/09 11:27:22;;;;;;;19.83;16.03;;;17.90;99.90;;;;;;4975648;28;20053;-77
2023/05/09 11:29:54;;;;;;;19.70;16.33;;;17.90;99.90;;;;;;4974266;28;20051;-75
2023/05/09 11:32:25;;;;;;;24.67;16.67;;;17.90;99.90;;;;;;4975940;28;20047;-76
2023/05/09 11:34:51;;;;;;;21.63;16.57;;;18.00;99.90;;;;;;4973745;28;20503;-73
2023/05/09 11:37:18;;;;;;;23.10;17.37;;;18.00;99.90;;;;;;4975605;28;20082;-71
2023/05/09 11:39:59;;;;;;;21.97;16.47;;;18.00;99.90;;;;;;4975076;28;20050;-73
2023/05/09 11:42:27;;;;;;;24.87;17.70;;;18.00;99.90;;;;;;4975040;28;20043;-75
2023/05/09 11:44:53;;;;;;;22.77;18.03;;;18.00;99.90;;;;;;4975337;28;20325;-72
2023/05/09 11:47:23;;;;;;;23.13;19.00;;;18.00;99.90;;;;;;4975180;28;20047;-77
2023/05/09 11:49:49;;;;;;;24.47;18.70;;;17.90;99.90;;;;;;4974786;28;20414;-77
2023/05/09 11:52:16;;;;;;;25.33;19.90;;;17.90;99.90;;;;;;4957856;28;20047;-77
2023/05/09 11:54:42;;;;;;;27.03;20.00;;;17.80;99.90;;;;;;4974956;28;20042;-76
2023/05/09 11:57:08;;;;;;;26.37;20.07;;;17.80;99.90;;;;;;4974860;28;20059;-76
2023/05/09 11:59:35;;;;;;;26.90;20.30;;;17.80;99.90;;;;;;4974886;28;20050;-76
2023/05/09 12:02:05;;;;;;;23.07;18.93;;;17.80;99.90;;;;;;4974897;28;20058;-76
2023/05/09 12:04:31;;;;;;;25.03;20.27;;;17.80;99.90;;;;;;4975075;28;20459;-77
2023/05/09 12:06:58;;;;;;;27.03;20.53;;;17.80;99.90;;;;;;4973894;28;20522;-76
2023/05/09 12:09:36;;;;;;;26.07;20.57;;;17.90;99.90;;;;;;4974794;28;20055;-76
2023/05/09 12:12:11;;;;;;;26.73;21.03;;;17.90;99.90;;;;;;4974773;28;20093;-76
2023/05/09 12:14:38;;;;;;;27.02;20.98;;;17.90;99.90;;;;;;4957992;28;20062;-76
2023/05/09 12:17:04;;;;;;;23.80;20.70;;;17.90;99.90;;;;;;4974975;28;20069;-76
2023/05/09 12:19:29;;;;;;;26.00;21.37;;;17.90;99.90;;;;;;4973761;28;20054;-76
2023/05/09 12:21:59;;;;;;;24.93;20.80;;;17.90;99.90;;;;;;4974882;28;20560;-76
2023/05/09 12:24:26;;;;;;;26.93;20.97;;;17.90;99.90;;;;;;4974588;28;20055;-76
2023/05/09 12:26:53;;;;;;;25.13;20.27;;;17.90;99.90;;;;;;4975050;28;20094;-77
2023/05/09 12:29:20;;;;;;;25.97;21.27;;;17.80;99.90;;;;;;4974628;28;20043;-78
2023/05/09 12:31:47;;;;;;;23.50;20.37;;;17.80;99.90;;;;;;4974545;28;20047;-77